createdAt,value
2019-03-28T00:00:30.115Z,1.70
2019-03-28T00:03:02.121Z,1.70
2019-03-28T00:05:33.160Z,1.80
2019-03-28T00:08:04.467Z,1.90
2019-03-28T00:10:35.251Z,1.70
2019-03-28T00:13:06.883Z,1.60
2019-03-28T00:15:39.234Z,1.60
2019-03-28T00:18:11.306Z,1.60
2019-03-28T00:20:42.299Z,1.60
2019-03-28T00:23:47.411Z,1.40
2019-03-28T00:26:29.491Z,1.50
2019-03-28T00:28:58.042Z,1.40
2019-03-28T00:31:28.461Z,1.60
2019-03-28T00:33:59.404Z,1.70
2019-03-28T00:36:30.328Z,1.80
2019-03-28T00:39:00.802Z,1.90
2019-03-28T00:41:31.354Z,1.90
2019-03-28T00:44:01.657Z,2.10
2019-03-28T00:46:33.698Z,2.00
2019-03-28T00:49:06.919Z,2.00
2019-03-28T00:51:37.618Z,2.00
2019-03-28T00:54:08.003Z,2.00
2019-03-28T00:56:46.974Z,1.90
2019-03-28T00:59:10.895Z,1.90
2019-03-28T01:01:41.841Z,1.90
2019-03-28T01:04:13.961Z,1.70
2019-03-28T01:06:44.253Z,1.80
2019-03-28T01:09:14.621Z,1.80
2019-03-28T01:11:44.904Z,1.70
2019-03-28T01:14:15.395Z,1.80
2019-03-28T01:16:46.235Z,1.80
2019-03-28T01:19:16.603Z,1.70
2019-03-28T01:21:47.234Z,1.70
2019-03-28T01:24:17.700Z,1.60
2019-03-28T01:26:57.326Z,1.60
2019-03-28T01:29:23.104Z,1.60
2019-03-28T01:31:53.390Z,1.70
2019-03-28T01:34:42.880Z,1.90
2019-03-28T01:37:13.239Z,2.00
2019-03-28T01:39:44.268Z,2.00
2019-03-28T01:42:14.642Z,2.00
2019-03-28T01:44:45.245Z,2.10
2019-03-28T01:47:15.789Z,2.00
2019-03-28T01:49:46.170Z,1.90
2019-03-28T01:52:17.352Z,1.80
2019-03-28T01:54:48.009Z,1.80
2019-03-28T01:57:19.303Z,1.80
2019-03-28T01:59:50.507Z,1.80
2019-03-28T02:02:20.883Z,1.80
2019-03-28T02:04:51.259Z,1.80
2019-03-28T02:07:21.687Z,1.60
2019-03-28T02:09:52.148Z,1.60
2019-03-28T02:12:22.500Z,1.70
2019-03-28T02:14:52.853Z,1.70
2019-03-28T02:17:23.210Z,1.70
2019-03-28T02:19:53.862Z,1.70
2019-03-28T02:22:24.224Z,1.80
2019-03-28T02:24:54.548Z,1.80
2019-03-28T02:27:25.384Z,1.90
2019-03-28T02:29:56.385Z,1.90
2019-03-28T02:32:26.667Z,1.90
2019-03-28T02:34:56.979Z,2.00
2019-03-28T02:37:27.271Z,2.00
2019-03-28T02:39:57.977Z,1.80
2019-03-28T02:42:28.201Z,1.70
2019-03-28T02:44:58.820Z,1.70
2019-03-28T02:47:29.113Z,1.60
2019-03-28T02:49:59.732Z,1.60
2019-03-28T02:52:30.331Z,1.50
2019-03-28T02:55:00.665Z,1.40
2019-03-28T02:57:41.118Z,1.40
2019-03-28T03:00:03.822Z,1.30
2019-03-28T03:02:34.132Z,1.20
2019-03-28T03:05:04.609Z,1.20
2019-03-28T03:07:34.781Z,1.10
2019-03-28T03:10:06.179Z,1.00
2019-03-28T03:12:36.556Z,0.90
2019-03-28T03:15:07.421Z,0.90
2019-03-28T03:17:56.702Z,0.90
2019-03-28T03:20:27.037Z,1.00
2019-03-28T03:22:57.479Z,1.00
2019-03-28T03:25:27.768Z,1.00
2019-03-28T03:27:59.300Z,1.00
2019-03-28T03:30:31.388Z,1.00
2019-03-28T03:33:01.987Z,0.80
2019-03-28T03:35:32.284Z,1.00
2019-03-28T03:38:02.562Z,1.20
2019-03-28T03:40:33.966Z,1.40
2019-03-28T03:43:04.265Z,1.60
2019-03-28T03:45:35.578Z,1.40
2019-03-28T03:48:06.960Z,1.30
2019-03-28T03:50:38.043Z,1.30
2019-03-28T03:53:08.875Z,1.40
2019-03-28T03:55:39.815Z,1.60
2019-03-28T03:58:15.940Z,1.60
2019-03-28T04:00:43.561Z,1.60
2019-03-28T04:03:14.353Z,1.60
2019-03-28T04:05:44.891Z,1.60
2019-03-28T04:08:15.763Z,1.50
2019-03-28T04:10:46.594Z,1.70
2019-03-28T04:13:17.380Z,1.90
2019-03-28T04:15:48.667Z,1.70
2019-03-28T04:18:22.089Z,1.70
2019-03-28T04:20:51.646Z,1.60
2019-03-28T04:23:22.186Z,1.50
2019-03-28T04:25:52.579Z,1.50
2019-03-28T04:28:31.799Z,1.20
2019-03-28T04:30:54.795Z,1.20
2019-03-28T04:33:25.004Z,1.10
2019-03-28T04:35:55.542Z,1.00
2019-03-28T04:38:26.719Z,0.90
2019-03-28T04:40:57.528Z,1.10
2019-03-28T04:43:28.125Z,1.20
2019-03-28T04:45:58.409Z,0.90
2019-03-28T04:48:28.632Z,0.90
2019-03-28T04:50:58.974Z,0.80
2019-03-28T04:53:29.695Z,0.80
2019-03-28T04:56:00.327Z,0.70
2019-03-28T04:58:43.464Z,0.60
2019-03-28T05:01:02.659Z,0.70
2019-03-28T05:03:33.006Z,0.80
2019-03-28T05:06:03.415Z,0.70
2019-03-28T05:08:33.642Z,0.60
2019-03-28T05:11:03.941Z,0.60
2019-03-28T05:13:34.583Z,0.70
2019-03-28T05:16:05.767Z,0.80
2019-03-28T05:18:36.776Z,0.60
2019-03-28T05:21:08.164Z,0.80
2019-03-28T05:23:39.087Z,0.70
2019-03-28T05:26:09.687Z,0.70
2019-03-28T05:28:40.818Z,0.80
2019-03-28T05:31:11.730Z,0.80
2019-03-28T05:33:42.628Z,0.90
2019-03-28T05:36:13.785Z,0.90
2019-03-28T05:38:44.334Z,0.90
2019-03-28T05:41:17.400Z,0.80
2019-03-28T05:43:50.832Z,0.80
2019-03-28T05:46:22.018Z,0.80
2019-03-28T05:48:52.782Z,0.90
2019-03-28T05:51:23.812Z,0.90
2019-03-28T05:53:54.064Z,0.90
2019-03-28T05:56:24.642Z,1.00
2019-03-28T05:59:14.381Z,1.20
2019-03-28T06:01:45.136Z,1.40
2019-03-28T06:04:16.326Z,1.60
2019-03-28T06:06:46.910Z,1.50
2019-03-28T06:09:20.492Z,1.60
2019-03-28T06:11:52.943Z,1.80
2019-03-28T06:14:24.343Z,1.60
2019-03-28T06:16:55.111Z,1.70
2019-03-28T06:19:26.160Z,1.60
2019-03-28T06:21:56.893Z,1.60
2019-03-28T06:24:27.756Z,1.70
2019-03-28T06:26:58.909Z,1.70
2019-03-28T06:29:30.152Z,1.70
2019-03-28T06:32:01.182Z,1.70
2019-03-28T06:34:32.346Z,1.80
2019-03-28T06:37:02.998Z,1.90
2019-03-28T06:39:36.379Z,2.00
2019-03-28T06:42:06.151Z,2.00
2019-03-28T06:44:36.615Z,2.10
2019-03-28T06:47:06.915Z,2.10
2019-03-28T06:49:37.166Z,2.20
2019-03-28T06:52:07.647Z,2.30
2019-03-28T06:54:38.865Z,2.40
2019-03-28T06:57:09.779Z,2.60
2019-03-28T06:59:40.971Z,2.50
2019-03-28T07:02:11.501Z,2.50
2019-03-28T07:04:42.091Z,2.70
2019-03-28T07:07:13.407Z,3.10
2019-03-28T07:09:44.312Z,3.70
2019-03-28T07:12:15.750Z,4.30
2019-03-28T07:14:47.042Z,4.80
2019-03-28T07:17:18.080Z,5.30
2019-03-28T07:19:48.954Z,5.80
2019-03-28T07:22:20.091Z,6.00
2019-03-28T07:25:09.552Z,6.30
2019-03-28T07:27:40.166Z,7.00
2019-03-28T07:30:11.950Z,7.60
2019-03-28T07:32:43.570Z,7.50
2019-03-28T07:35:15.035Z,6.70
2019-03-28T07:37:46.069Z,6.00
2019-03-28T07:40:17.678Z,5.60
2019-03-28T07:42:48.276Z,5.40
2019-03-28T07:45:18.931Z,5.20
2019-03-28T07:47:49.898Z,5.60
2019-03-28T07:50:20.799Z,7.40
2019-03-28T07:52:51.733Z,9.60
2019-03-28T07:55:22.463Z,10.50
2019-03-28T07:58:11.887Z,11.20
2019-03-28T08:00:42.260Z,10.60
2019-03-28T08:03:12.937Z,10.50
2019-03-28T08:05:43.919Z,10.50
2019-03-28T08:08:14.593Z,10.30
2019-03-28T08:10:45.584Z,10.90
2019-03-28T08:13:17.021Z,12.30
2019-03-28T08:15:48.091Z,13.30
2019-03-28T08:18:19.474Z,13.50
2019-03-28T08:20:50.062Z,13.50
2019-03-28T08:23:20.338Z,13.40
2019-03-28T08:25:50.760Z,13.70
2019-03-28T08:28:21.001Z,15.30
2019-03-28T08:30:51.650Z,15.90
2019-03-28T08:33:22.018Z,16.60
2019-03-28T08:36:11.670Z,16.90
2019-03-28T08:38:43.190Z,16.70
2019-03-28T08:41:14.191Z,17.50
2019-03-28T08:43:45.580Z,18.40
2019-03-28T08:46:16.522Z,19.10
2019-03-28T08:48:47.937Z,19.50
2019-03-28T08:51:19.486Z,20.00
2019-03-28T08:53:50.235Z,20.10
2019-03-28T08:56:21.367Z,20.30
2019-03-28T08:58:52.770Z,20.40
2019-03-28T09:01:23.807Z,20.00
2019-03-28T09:03:56.596Z,20.90
2019-03-28T09:06:27.628Z,21.00
2019-03-28T09:08:58.584Z,19.80
2019-03-28T09:11:29.535Z,19.50
2019-03-28T09:14:00.500Z,20.30
2019-03-28T09:16:31.780Z,20.30
2019-03-28T09:19:02.458Z,20.50
2019-03-28T09:21:33.717Z,21.00
2019-03-28T09:24:04.471Z,21.90
2019-03-28T09:26:35.667Z,21.80
2019-03-28T09:29:06.078Z,20.50
2019-03-28T09:31:36.908Z,21.30
2019-03-28T09:34:07.120Z,21.10
2019-03-28T09:36:37.911Z,21.40
2019-03-28T09:39:10.642Z,22.40
2019-03-28T09:41:41.050Z,22.40
2019-03-28T09:44:11.550Z,22.40
2019-03-28T09:46:41.975Z,22.80
2019-03-28T09:49:12.368Z,22.40
2019-03-28T09:51:42.672Z,23.30
2019-03-28T09:54:13.066Z,22.80
2019-03-28T09:56:43.495Z,23.80
2019-03-28T09:59:13.781Z,24.90
2019-03-28T10:01:44.187Z,23.90
2019-03-28T10:04:14.597Z,22.90
2019-03-28T10:06:44.967Z,22.90
2019-03-28T10:09:15.165Z,23.80
2019-03-28T10:11:46.295Z,24.50
2019-03-28T10:14:16.646Z,24.70
2019-03-28T10:16:47.746Z,23.90
2019-03-28T10:19:18.152Z,23.80
2019-03-28T10:21:49.227Z,25.00
2019-03-28T10:24:20.092Z,24.60
2019-03-28T10:26:50.992Z,24.50
2019-03-28T10:29:22.299Z,24.40
2019-03-28T10:31:53.030Z,24.60
2019-03-28T10:34:24.143Z,20.90
2019-03-28T10:36:55.195Z,21.90
2019-03-28T10:39:25.892Z,22.90
2019-03-28T10:42:00.030Z,22.90
2019-03-28T10:44:31.690Z,23.80
2019-03-28T10:47:05.024Z,23.70
2019-03-28T10:49:34.862Z,23.70
2019-03-28T10:52:05.632Z,24.60
2019-03-28T10:54:36.090Z,24.80
2019-03-28T10:57:13.529Z,25.10
2019-03-28T10:59:38.561Z,24.60
2019-03-28T11:02:09.079Z,24.20
2019-03-28T11:04:39.649Z,23.90
2019-03-28T11:07:10.230Z,20.90
2019-03-28T11:09:40.804Z,20.70
2019-03-28T11:12:11.323Z,19.40
2019-03-28T11:14:41.780Z,19.90
2019-03-28T11:17:12.591Z,18.20
2019-03-28T11:19:44.018Z,19.00
2019-03-28T11:22:15.319Z,19.80
2019-03-28T11:24:46.457Z,18.40
2019-03-28T11:27:18.362Z,18.00
2019-03-28T11:29:49.243Z,19.60
2019-03-28T11:32:21.734Z,20.90
2019-03-28T11:34:52.206Z,20.80
2019-03-28T11:37:26.412Z,21.00
2019-03-28T11:40:04.978Z,21.40
2019-03-28T11:42:35.867Z,21.40
2019-03-28T11:45:09.318Z,21.70
2019-03-28T11:47:39.206Z,22.30
2019-03-28T11:50:12.168Z,22.30
2019-03-28T11:52:43.062Z,21.80
2019-03-28T11:55:13.616Z,22.10
2019-03-28T11:57:44.163Z,22.10
2019-03-28T12:00:15.812Z,22.40
2019-03-28T12:02:46.384Z,22.50
2019-03-28T12:05:17.124Z,21.90
2019-03-28T12:07:49.562Z,22.60
2019-03-28T12:10:21.913Z,22.10
2019-03-28T12:12:52.855Z,21.60
2019-03-28T12:15:23.357Z,22.00
2019-03-28T12:17:54.222Z,22.50
2019-03-28T12:20:24.746Z,21.60
2019-03-28T12:22:56.166Z,21.20
2019-03-28T12:25:27.501Z,21.10
2019-03-28T12:28:00.389Z,21.70
2019-03-28T12:30:30.190Z,21.80
2019-03-28T12:33:00.872Z,21.40
2019-03-28T12:35:31.718Z,21.60
2019-03-28T12:38:02.700Z,21.60
2019-03-28T12:40:34.326Z,21.30
2019-03-28T12:43:05.135Z,21.00
2019-03-28T12:45:35.590Z,21.20
2019-03-28T12:48:06.154Z,21.20
2019-03-28T12:50:36.583Z,21.00
2019-03-28T12:53:07.085Z,20.90
2019-03-28T12:55:37.900Z,21.00
2019-03-28T12:58:08.507Z,20.70
2019-03-28T13:00:39.234Z,20.30
2019-03-28T13:03:09.777Z,19.70
2019-03-28T13:05:40.430Z,20.40
2019-03-28T13:08:10.973Z,21.10
2019-03-28T13:10:41.402Z,21.00
2019-03-28T13:13:12.369Z,21.20
2019-03-28T13:15:42.863Z,21.00
2019-03-28T13:18:13.923Z,20.90
2019-03-28T13:20:44.823Z,20.30
2019-03-28T13:23:15.271Z,20.00
2019-03-28T13:25:46.055Z,20.00
2019-03-28T13:28:16.642Z,19.30
2019-03-28T13:30:47.162Z,18.90
2019-03-28T13:33:18.636Z,19.00
2019-03-28T13:35:49.486Z,19.10
2019-03-28T13:38:20.685Z,19.10
2019-03-28T13:40:51.704Z,19.20
2019-03-28T13:43:41.356Z,19.20
2019-03-28T13:46:12.530Z,19.10
2019-03-28T13:48:46.036Z,18.20
2019-03-28T13:51:20.399Z,18.10
2019-03-28T13:53:52.200Z,18.20
2019-03-28T13:56:23.215Z,18.10
2019-03-28T13:58:54.080Z,18.00
2019-03-28T14:01:26.259Z,18.20
2019-03-28T14:03:57.234Z,18.20
2019-03-28T14:06:28.044Z,17.90
2019-03-28T14:08:59.435Z,17.70
2019-03-28T14:11:30.572Z,17.60
2019-03-28T14:14:01.576Z,17.70
2019-03-28T14:16:32.639Z,17.70
2019-03-28T14:19:03.618Z,17.50
2019-03-28T14:21:34.499Z,17.70
2019-03-28T14:24:05.986Z,17.60
2019-03-28T14:26:37.685Z,17.80
2019-03-28T14:29:08.488Z,17.70
2019-03-28T14:31:39.762Z,18.00
2019-03-28T14:34:10.769Z,17.60
2019-03-28T14:36:41.816Z,17.10
2019-03-28T14:39:12.990Z,17.00
2019-03-28T14:41:46.250Z,17.10
2019-03-28T14:44:15.703Z,17.20
2019-03-28T14:46:46.755Z,17.20
2019-03-28T14:49:17.789Z,17.40
2019-03-28T14:51:49.225Z,17.50
2019-03-28T14:54:20.086Z,17.40
2019-03-28T14:56:50.768Z,17.60
2019-03-28T14:59:32.474Z,17.50
2019-03-28T15:01:54.638Z,17.50
2019-03-28T15:04:25.456Z,17.40
2019-03-28T15:06:55.788Z,17.50
2019-03-28T15:09:26.683Z,17.30
2019-03-28T15:11:57.062Z,17.30
2019-03-28T15:14:28.291Z,17.40
2019-03-28T15:16:59.407Z,17.20
2019-03-28T15:19:30.519Z,16.90
2019-03-28T15:22:02.527Z,16.70
2019-03-28T15:24:33.142Z,16.60
2019-03-28T15:27:04.286Z,16.70
2019-03-28T15:29:36.131Z,16.50
2019-03-28T15:32:06.971Z,16.40
2019-03-28T15:34:38.054Z,16.30
2019-03-28T15:37:09.130Z,16.10
2019-03-28T15:39:40.134Z,16.00
2019-03-28T15:42:11.417Z,16.00
2019-03-28T15:44:42.114Z,15.90
2019-03-28T15:47:13.172Z,16.10
2019-03-28T15:49:43.734Z,16.20
2019-03-28T15:52:15.364Z,16.20
2019-03-28T15:54:46.430Z,16.10
2019-03-28T15:57:17.575Z,16.00
2019-03-28T15:59:51.325Z,15.90
2019-03-28T16:02:22.743Z,15.90
2019-03-28T16:04:54.324Z,15.80
2019-03-28T16:07:25.077Z,15.70
2019-03-28T16:09:55.832Z,15.70
2019-03-28T16:12:26.949Z,15.60
2019-03-28T16:14:57.404Z,15.70
2019-03-28T16:17:28.068Z,15.80
2019-03-28T16:19:59.059Z,15.80
2019-03-28T16:22:29.478Z,15.80
2019-03-28T16:24:59.810Z,15.70
2019-03-28T16:27:32.994Z,15.70
2019-03-28T16:30:03.798Z,15.50
2019-03-28T16:32:35.719Z,15.30
2019-03-28T16:35:07.527Z,15.20
2019-03-28T16:37:38.786Z,15.10
2019-03-28T16:40:09.987Z,15.10
2019-03-28T16:42:41.733Z,15.00
2019-03-28T16:45:12.453Z,14.90
2019-03-28T16:47:42.894Z,14.80
2019-03-28T16:50:14.079Z,14.80
2019-03-28T16:52:48.039Z,14.80
2019-03-28T16:55:26.189Z,14.80
2019-03-28T16:57:50.039Z,14.70
2019-03-28T17:00:22.938Z,14.70
2019-03-28T17:02:53.472Z,14.60
2019-03-28T17:05:23.905Z,14.50
2019-03-28T17:07:57.433Z,14.40
2019-03-28T17:10:45.876Z,14.30
2019-03-28T17:13:16.621Z,14.20
2019-03-28T17:15:47.085Z,14.20
2019-03-28T17:18:18.769Z,14.20
2019-03-28T17:20:49.871Z,14.10
2019-03-28T17:23:20.501Z,14.00
2019-03-28T17:25:51.317Z,13.90
2019-03-28T17:28:22.118Z,13.80
2019-03-28T17:30:53.256Z,13.70
2019-03-28T17:33:23.857Z,13.60
2019-03-28T17:35:55.006Z,13.50
2019-03-28T17:38:26.038Z,13.40
2019-03-28T17:40:56.593Z,13.30
2019-03-28T17:43:45.931Z,13.20
2019-03-28T17:46:16.367Z,13.10
2019-03-28T17:48:47.612Z,13.10
2019-03-28T17:51:18.355Z,12.90
2019-03-28T17:53:56.275Z,12.80
2019-03-28T17:56:27.054Z,12.60
2019-03-28T17:58:58.085Z,12.60
2019-03-28T18:01:29.110Z,12.50
2019-03-28T18:04:00.247Z,12.40
2019-03-28T18:06:31.396Z,12.40
2019-03-28T18:09:01.882Z,12.20
2019-03-28T18:11:32.584Z,12.20
2019-03-28T18:14:03.051Z,12.00
2019-03-28T18:16:34.118Z,11.90
2019-03-28T18:19:04.744Z,11.90
2019-03-28T18:21:35.170Z,11.80
2019-03-28T18:24:06.024Z,11.80
2019-03-28T18:26:36.430Z,11.80
2019-03-28T18:29:06.980Z,11.70
2019-03-28T18:31:49.841Z,11.60
2019-03-28T18:34:12.473Z,11.60
2019-03-28T18:36:43.570Z,11.40
2019-03-28T18:39:15.289Z,11.40
2019-03-28T18:41:46.574Z,11.40
2019-03-28T18:44:17.372Z,11.30
2019-03-28T18:46:48.187Z,11.30
2019-03-28T18:49:18.900Z,11.20
2019-03-28T18:51:49.524Z,11.00
2019-03-28T18:54:20.389Z,10.90
2019-03-28T18:56:51.410Z,10.80
2019-03-28T18:59:21.940Z,10.70
2019-03-28T19:01:52.713Z,10.60
2019-03-28T19:04:23.401Z,10.50
2019-03-28T19:06:57.483Z,10.40
2019-03-28T19:09:26.894Z,10.30
2019-03-28T19:11:57.906Z,10.20
2019-03-28T19:14:28.934Z,10.20
2019-03-28T19:16:59.715Z,10.20
2019-03-28T19:19:39.321Z,10.20
2019-03-28T19:22:03.014Z,10.20
2019-03-28T19:24:33.964Z,10.20
2019-03-28T19:27:05.174Z,10.00
2019-03-28T19:29:36.343Z,10.10
2019-03-28T19:32:08.146Z,10.20
2019-03-28T19:34:39.194Z,10.20
2019-03-28T19:37:09.922Z,10.20
2019-03-28T19:39:40.649Z,10.30
2019-03-28T19:42:11.871Z,10.20
2019-03-28T19:44:42.957Z,10.10
2019-03-28T19:47:14.310Z,10.20
2019-03-28T19:49:45.237Z,10.00
2019-03-28T19:52:15.833Z,9.90
2019-03-28T19:54:46.492Z,9.90
2019-03-28T19:57:17.669Z,9.90
2019-03-28T19:59:48.967Z,9.80
2019-03-28T20:02:19.465Z,9.80
2019-03-28T20:04:49.868Z,9.60
2019-03-28T20:07:22.131Z,9.50
2019-03-28T20:09:52.722Z,9.20
2019-03-28T20:12:23.218Z,9.10
2019-03-28T20:14:54.085Z,8.90
2019-03-28T20:17:24.438Z,8.70
2019-03-28T20:19:54.858Z,8.50
2019-03-28T20:22:25.239Z,8.40
2019-03-28T20:24:58.179Z,8.30
2019-03-28T20:27:27.770Z,8.40
2019-03-28T20:29:58.299Z,8.40
2019-03-28T20:32:28.808Z,8.40
2019-03-28T20:34:59.144Z,8.40
2019-03-28T20:37:30.432Z,8.20
2019-03-28T20:40:01.317Z,8.30
2019-03-28T20:42:32.046Z,8.40
2019-03-28T20:45:02.513Z,8.50
2019-03-28T20:47:32.991Z,8.40
2019-03-28T20:50:03.491Z,8.40
2019-03-28T20:52:33.989Z,8.10
2019-03-28T20:55:04.705Z,8.20
2019-03-28T20:57:40.428Z,8.00
2019-03-28T21:00:10.822Z,7.80
2019-03-28T21:02:41.284Z,7.80
2019-03-28T21:05:14.367Z,7.70
2019-03-28T21:07:44.315Z,7.80
2019-03-28T21:10:25.422Z,7.60
2019-03-28T21:12:56.510Z,7.50
2019-03-28T21:15:26.865Z,7.60
2019-03-28T21:17:57.297Z,7.50
2019-03-28T21:20:28.271Z,7.30
2019-03-28T21:23:00.218Z,7.20
2019-03-28T21:25:31.043Z,7.10
2019-03-28T21:28:01.954Z,7.00
2019-03-28T21:30:46.298Z,7.10
2019-03-28T21:33:25.060Z,7.00
2019-03-28T21:35:56.231Z,6.90
2019-03-28T21:41:20.077Z,6.80
2019-03-28T21:43:50.951Z,6.80
2019-03-28T21:46:21.294Z,7.00
2019-03-28T21:48:54.554Z,6.80
2019-03-28T21:51:26.008Z,6.70
2019-03-28T21:53:56.514Z,6.80
2019-03-28T21:56:26.905Z,6.80
2019-03-28T21:58:58.418Z,7.10
2019-03-28T22:01:30.884Z,7.10
2019-03-28T22:04:01.700Z,7.20
2019-03-28T22:06:42.387Z,7.20
2019-03-28T22:09:08.083Z,7.10
2019-03-28T22:11:39.010Z,7.40
2019-03-28T22:14:09.820Z,7.50
2019-03-28T22:16:40.927Z,7.50
2019-03-28T22:19:11.157Z,7.40
2019-03-28T22:21:41.537Z,7.20
2019-03-28T22:24:12.732Z,7.10
2019-03-28T22:26:45.881Z,7.10
2019-03-28T22:29:15.429Z,7.00
2019-03-28T22:31:45.722Z,6.90
2019-03-28T22:34:16.221Z,6.70
2019-03-28T22:36:56.636Z,6.60
2019-03-28T22:39:19.470Z,6.40
2019-03-28T22:41:49.957Z,6.40
2019-03-28T22:44:20.310Z,6.40
2019-03-28T22:46:50.630Z,6.30
2019-03-28T22:49:20.978Z,6.50
2019-03-28T22:51:51.242Z,6.40
2019-03-28T22:54:21.580Z,6.50
2019-03-28T22:56:51.907Z,6.70
2019-03-28T22:59:22.183Z,6.80
2019-03-28T23:01:52.642Z,6.90
2019-03-28T23:04:22.981Z,7.20
2019-03-28T23:06:53.855Z,7.30
2019-03-28T23:09:24.950Z,7.10
2019-03-28T23:11:55.530Z,6.90
2019-03-28T23:14:26.072Z,6.80
2019-03-28T23:16:56.855Z,6.70
2019-03-28T23:19:27.122Z,6.80
2019-03-28T23:21:57.482Z,6.90
2019-03-28T23:24:27.790Z,7.20
2019-03-28T23:26:58.108Z,7.30
2019-03-28T23:29:28.390Z,7.40
2019-03-28T23:31:58.720Z,7.50
2019-03-28T23:34:29.043Z,7.80
2019-03-28T23:36:59.319Z,8.00
2019-03-28T23:39:29.794Z,8.20
2019-03-28T23:42:00.938Z,8.30
2019-03-28T23:44:31.580Z,8.20
2019-03-28T23:47:02.150Z,8.10
2019-03-28T23:49:32.562Z,7.90
2019-03-28T23:52:03.470Z,7.80
2019-03-28T23:54:33.748Z,7.70
2019-03-28T23:57:04.554Z,7.60
2019-03-28T23:59:35.314Z,7.90
